Terminal Aerodrome Forecast
Issued by NWS

Home | Current Version | Previous Version | Graphics & Text | Print | Product List | Glossary On
Versions: 1 2 3 4 5 6 7 8 9 10 11 12
000
FTUS43 KLSX 031100
TAFUIN
TAF
KUIN 031120Z 0312/0412 17008KT P6SM BKN100 WS006/20030KT
     FM031400 19014KT P6SM BKN100
     FM031700 20014G22KT P6SM SCT250
     FM040100 18010KT P6SM VCSH SCT100 BKN250=

USA.gov is the U.S. government's official web portal to all federal, state and local government web resources and services.